首页
METAR-TAF:

METAR-TAF

机场 :

Stony Rapids, 薩斯喀徹溫, 加拿大

纬度: 59-15N, 经度: 105-50W, 海拔: 250米

当前天气观测

该预报发布于1小时和4分钟前的08:00 UTC
风速9节,风向,有时为15节阵风
温度 8°C
湿度 87%
气压 1002 hPa
能見度: 14.5公里
少量云层高于6500英尺
阴天层高于8100英尺
小雨

METAR: CYSF 010800Z AUTO 08009G15KT 9SM -RA FEW065 OVC081 08/06 A2959 RMK SLP032

时间: 03:04 (09:04 UTC)

预报

该预报发布于3小时和24分钟前的05:40 UTC
预报有效从01日的 06点(UTC)到 01日的 18点(UTC)
风速10节,风向,有时为20节阵风
能見度: 10公里
散云层高于6000英尺
多云层高于9000英尺
短暂存在
从 01日的 06点(UTC)到 01日的 09点(UTC)
能見度: 10公里
多云层高于6000英尺
小阵雨
从 01日的 0900点(UTC)
风速15节,风向,有时为25节阵风
能見度: 10公里
多云层高于3000英尺
阴天层高于6000英尺
短暂存在
从 01日的 09点(UTC)到 01日的 14点(UTC)
能見度: 8.0公里
多云层高于1500英尺
阴天层高于3000英尺
小雨, 轻雾
从 01日的 1400点(UTC)
风速20节,风向,有时为30节阵风
能見度: 10公里
多云层高于2500英尺
小雨
短暂存在
从 01日的 14点(UTC)到 01日的 18点(UTC)
能見度: 6.4公里
多云层高于1200英尺, 积雨云.
阵雨, 附近有雷暴

TAF: CYSF 010540Z 0106/0118 08010G20KT P6SM SCT060 BKN090 TEMPO 0106/0109 P6SM -SHRA BKN060 FM010900 08015G25KT P6SM BKN030 OVC060 TEMPO 0109/0114 5SM -RA BR BKN015 OVC030 FM011400 08020G30KT P6SM -RA BKN025 TEMPO 0114/0118 4SM SHRA VCTS BKN012CB RMK FCST BASED ON AUTO OBS. NXT FCST BY 011200Z

超过4000个机场的气象观测和天气预报(METAR&TAF报告)。

可查询的气象台以黄色和红色小点在地图上表示。

将鼠标移到小点上方,可查看气象台名称。

然后点击查看天气观测和预报。

如需切换地图:点击带黑十字的绿色按钮放大地图;点击带横线的绿色按钮缩小地图;或者点击绿色箭头查看邻近地区的地图。


METAR-TAF: